sensor_id;sensor_type;location;lat;lon;timestamp;pressure;altitude;pressure_sealevel;temperature;humidity
56374;BME280;58212;47.034;7.376;2023-06-14T00:00:51;94698.00;;;16.25;41.48
56374;BME280;58212;47.034;7.376;2023-06-14T00:03:18;94698.38;;;16.13;44.39
56374;BME280;58212;47.034;7.376;2023-06-14T00:05:47;94700.97;;;15.95;43.93
56374;BME280;58212;47.034;7.376;2023-06-14T00:08:17;94695.50;;;15.81;45.04
56374;BME280;58212;47.034;7.376;2023-06-14T00:10:44;94703.75;;;15.85;43.60
56374;BME280;58212;47.034;7.376;2023-06-14T00:13:11;94697.94;;;16.06;41.87
56374;BME280;58212;47.034;7.376;2023-06-14T00:15:38;94690.38;;;15.56;43.50
56374;BME280;58212;47.034;7.376;2023-06-14T00:18:05;94693.00;;;15.61;44.80
56374;BME280;58212;47.034;7.376;2023-06-14T00:20:33;94698.09;;;15.86;43.25
56374;BME280;58212;47.034;7.376;2023-06-14T00:23:00;94690.63;;;15.88;43.26
56374;BME280;58212;47.034;7.376;2023-06-14T00:25:53;94689.06;;;15.53;44.32
56374;BME280;58212;47.034;7.376;2023-06-14T00:28:20;94692.41;;;15.69;42.23
56374;BME280;58212;47.034;7.376;2023-06-14T00:30:47;94695.75;;;15.51;45.19
56374;BME280;58212;47.034;7.376;2023-06-14T00:33:18;94700.72;;;15.29;46.13
56374;BME280;58212;47.034;7.376;2023-06-14T00:35:49;94682.44;;;15.46;43.83
56374;BME280;58212;47.034;7.376;2023-06-14T00:38:19;94696.97;;;15.63;44.52
56374;BME280;58212;47.034;7.376;2023-06-14T00:40:46;94696.03;;;15.49;45.28
56374;BME280;58212;47.034;7.376;2023-06-14T00:43:14;94699.16;;;15.56;44.23
56374;BME280;58212;47.034;7.376;2023-06-14T00:45:42;94703.50;;;15.47;44.40
56374;BME280;58212;47.034;7.376;2023-06-14T00:48:10;94691.88;;;15.33;45.89
56374;BME280;58212;47.034;7.376;2023-06-14T00:50:37;94698.06;;;15.24;46.88
56374;BME280;58212;47.034;7.376;2023-06-14T00:53:08;94693.00;;;15.61;44.88
56374;BME280;58212;47.034;7.376;2023-06-14T00:55:34;94695.88;;;15.98;42.11
56374;BME280;58212;47.034;7.376;2023-06-14T00:58:01;94694.53;;;15.67;43.62
56374;BME280;58212;47.034;7.376;2023-06-14T01:00:30;94695.19;;;15.54;43.82
56374;BME280;58212;47.034;7.376;2023-06-14T01:02:56;94690.34;;;15.61;42.52
56374;BME280;58212;47.034;7.376;2023-06-14T01:05:23;94692.19;;;15.66;43.37
56374;BME280;58212;47.034;7.376;2023-06-14T01:08:01;94696.03;;;15.49;43.86
56374;BME280;58212;47.034;7.376;2023-06-14T01:10:39;94699.28;;;15.75;41.82
56374;BME280;58212;47.034;7.376;2023-06-14T01:13:14;94701.59;;;15.53;42.83
56374;BME280;58212;47.034;7.376;2023-06-14T01:15:47;94700.88;;;15.76;43.35
56374;BME280;58212;47.034;7.376;2023-06-14T01:18:14;94696.22;;;15.19;45.46
56374;BME280;58212;47.034;7.376;2023-06-14T01:20:44;94697.91;;;15.10;45.59
56374;BME280;58212;47.034;7.376;2023-06-14T01:23:16;94692.72;;;15.29;43.91
56374;BME280;58212;47.034;7.376;2023-06-14T01:25:43;94695.97;;;15.15;44.36
56374;BME280;58212;47.034;7.376;2023-06-14T01:28:15;94693.84;;;15.18;45.35
56374;BME280;58212;47.034;7.376;2023-06-14T01:30:44;94702.84;;;14.88;45.70
56374;BME280;58212;47.034;7.376;2023-06-14T01:33:17;94698.16;;;15.08;44.43
56374;BME280;58212;47.034;7.376;2023-06-14T01:35:46;94695.16;;;14.81;46.65
56374;BME280;58212;47.034;7.376;2023-06-14T01:38:17;94699.41;;;14.82;45.73
56374;BME280;58212;47.034;7.376;2023-06-14T01:40:47;94698.88;;;14.80;45.33
56374;BME280;58212;47.034;7.376;2023-06-14T01:43:15;94695.72;;;15.17;42.41
56374;BME280;58212;47.034;7.376;2023-06-14T01:45:42;94698.25;;;14.93;45.82
56374;BME280;58212;47.034;7.376;2023-06-14T01:48:11;94710.56;;;14.84;45.87
56374;BME280;58212;47.034;7.376;2023-06-14T01:50:39;94701.47;;;14.90;44.71
56374;BME280;58212;47.034;7.376;2023-06-14T01:53:07;94698.84;;;14.85;45.28
56374;BME280;58212;47.034;7.376;2023-06-14T01:55:37;94704.28;;;14.65;45.49
56374;BME280;58212;47.034;7.376;2023-06-14T01:58:08;94696.34;;;15.04;43.35
56374;BME280;58212;47.034;7.376;2023-06-14T02:00:35;94695.44;;;15.57;42.10
56374;BME280;58212;47.034;7.376;2023-06-14T02:03:02;94695.63;;;15.32;41.99
56374;BME280;58212;47.034;7.376;2023-06-14T02:05:30;94691.56;;;15.40;42.49
56374;BME280;58212;47.034;7.376;2023-06-14T02:08:00;94700.63;;;15.00;43.70
56374;BME280;58212;47.034;7.376;2023-06-14T02:10:31;94703.22;;;14.66;44.49
56374;BME280;58212;47.034;7.376;2023-06-14T02:13:02;94717.50;;;14.11;48.20
56374;BME280;58212;47.034;7.376;2023-06-14T02:15:29;94717.53;;;13.96;49.54
56374;BME280;58212;47.034;7.376;2023-06-14T02:18:00;94714.31;;;13.99;47.86
56374;BME280;58212;47.034;7.376;2023-06-14T02:20:27;94706.34;;;14.04;47.93
56374;BME280;58212;47.034;7.376;2023-06-14T02:23:18;94709.03;;;13.68;50.00
56374;BME280;58212;47.034;7.376;2023-06-14T02:26:12;94711.44;;;13.65;50.21
56374;BME280;58212;47.034;7.376;2023-06-14T02:28:42;94707.19;;;13.74;48.76
56374;BME280;58212;47.034;7.376;2023-06-14T02:31:35;94706.94;;;13.76;48.04
56374;BME280;58212;47.034;7.376;2023-06-14T02:34:02;94711.44;;;13.60;49.96
56374;BME280;58212;47.034;7.376;2023-06-14T02:36:28;94718.88;;;13.73;48.40
56374;BME280;58212;47.034;7.376;2023-06-14T02:38:58;94717.53;;;14.01;47.88
56374;BME280;58212;47.034;7.376;2023-06-14T02:41:26;94708.78;;;13.70;49.83
56374;BME280;58212;47.034;7.376;2023-06-14T02:43:54;94712.25;;;13.70;48.76
56374;BME280;58212;47.034;7.376;2023-06-14T02:46:22;94717.81;;;13.59;49.06
56374;BME280;58212;47.034;7.376;2023-06-14T02:48:49;94714.91;;;13.50;49.87
56374;BME280;58212;47.034;7.376;2023-06-14T02:51:19;94718.59;;;13.69;48.15
56374;BME280;58212;47.034;7.376;2023-06-14T02:53:46;94723.13;;;13.89;46.11
56374;BME280;58212;47.034;7.376;2023-06-14T02:56:15;94709.59;;;13.55;49.03
56374;BME280;58212;47.034;7.376;2023-06-14T02:58:46;94724.47;;;13.51;48.49
56374;BME280;58212;47.034;7.376;2023-06-14T03:01:40;94722.63;;;13.32;49.77
56374;BME280;58212;47.034;7.376;2023-06-14T03:04:12;94723.94;;;13.34;49.46
56374;BME280;58212;47.034;7.376;2023-06-14T03:06:41;94729.25;;;13.44;48.82
56374;BME280;58212;47.034;7.376;2023-06-14T03:09:11;94728.72;;;13.32;47.84
56374;BME280;58212;47.034;7.376;2023-06-14T03:11:39;94729.78;;;13.26;49.74
56374;BME280;58212;47.034;7.376;2023-06-14T03:14:06;94734.31;;;13.31;49.20
56374;BME280;58212;47.034;7.376;2023-06-14T03:16:35;94726.31;;;13.36;49.50
56374;BME280;58212;47.034;7.376;2023-06-14T03:19:04;94732.69;;;13.19;49.98
56374;BME280;58212;47.034;7.376;2023-06-14T03:21:32;94742.72;;;13.07;50.73
56374;BME280;58212;47.034;7.376;2023-06-14T03:24:02;94739.56;;;13.10;50.61
56374;BME280;58212;47.034;7.376;2023-06-14T03:26:30;94741.13;;;13.01;50.28
56374;BME280;58212;47.034;7.376;2023-06-14T03:29:04;94742.53;;;13.19;49.46
56374;BME280;58212;47.034;7.376;2023-06-14T03:31:30;94741.91;;;12.92;51.25
56374;BME280;58212;47.034;7.376;2023-06-14T03:34:00;94750.41;;;12.94;51.52
56374;BME280;58212;47.034;7.376;2023-06-14T03:36:30;94744.25;;;12.78;52.64
56374;BME280;58212;47.034;7.376;2023-06-14T03:38:59;94742.25;;;13.15;51.89
56374;BME280;58212;47.034;7.376;2023-06-14T03:41:27;94745.09;;;12.99;51.54
56374;BME280;58212;47.034;7.376;2023-06-14T03:43:54;94748.09;;;13.17;51.07
56374;BME280;58212;47.034;7.376;2023-06-14T03:46:21;94755.75;;;13.04;51.61
56374;BME280;58212;47.034;7.376;2023-06-14T03:48:48;94751.81;;;13.11;50.97
56374;BME280;58212;47.034;7.376;2023-06-14T03:51:16;94755.50;;;13.05;51.98
56374;BME280;58212;47.034;7.376;2023-06-14T03:53:45;94749.38;;;13.05;51.64
56374;BME280;58212;47.034;7.376;2023-06-14T03:56:13;94755.75;;;13.04;51.82
56374;BME280;58212;47.034;7.376;2023-06-14T03:58:42;94760.22;;;12.93;52.02
56374;BME280;58212;47.034;7.376;2023-06-14T04:01:09;94753.38;;;13.02;51.90
56374;BME280;58212;47.034;7.376;2023-06-14T04:03:37;94759.19;;;12.99;52.06
56374;BME280;58212;47.034;7.376;2023-06-14T04:06:06;94760.53;;;13.07;51.76
56374;BME280;58212;47.034;7.376;2023-06-14T04:08:33;94763.00;;;13.24;49.69
56374;BME280;58212;47.034;7.376;2023-06-14T04:11:02;94764.03;;;13.12;51.49
56374;BME280;58212;47.034;7.376;2023-06-14T04:13:29;94773.34;;;13.20;50.66
56374;BME280;58212;47.034;7.376;2023-06-14T04:15:55;94773.63;;;13.24;50.82
56374;BME280;58212;47.034;7.376;2023-06-14T04:18:28;94776.81;;;13.36;50.83
56374;BME280;58212;47.034;7.376;2023-06-14T04:20:56;94778.44;;;13.32;50.90
56374;BME280;58212;47.034;7.376;2023-06-14T04:23:23;94779.22;;;13.37;50.67
56374;BME280;58212;47.034;7.376;2023-06-14T04:25:56;94778.94;;;13.44;51.35
56374;BME280;58212;47.034;7.376;2023-06-14T04:28:29;94780.56;;;13.50;51.07
56374;BME280;58212;47.034;7.376;2023-06-14T04:30:58;94785.59;;;13.51;51.00
56374;BME280;58212;47.034;7.376;2023-06-14T04:33:30;94786.41;;;13.52;51.41
56374;BME280;58212;47.034;7.376;2023-06-14T04:35:57;94784.03;;;13.55;51.53
56374;BME280;58212;47.034;7.376;2023-06-14T04:38:25;94791.75;;;13.57;52.24
56374;BME280;58212;47.034;7.376;2023-06-14T04:40:55;94786.44;;;13.72;51.79
56374;BME280;58212;47.034;7.376;2023-06-14T04:43:25;94778.97;;;13.84;51.88
56374;BME280;58212;47.034;7.376;2023-06-14T04:45:57;94783.75;;;14.02;51.34
56374;BME280;58212;47.034;7.376;2023-06-14T04:48:25;94780.03;;;15.47;47.46
56374;BME280;58212;47.034;7.376;2023-06-14T04:50:53;94763.03;;;20.60;37.54
56374;BME280;58212;47.034;7.376;2023-06-14T04:53:20;94749.97;;;23.70;31.62
56374;BME280;58212;47.034;7.376;2023-06-14T04:55:51;94757.81;;;25.06;29.32
56374;BME280;58212;47.034;7.376;2023-06-14T04:58:19;94753.47;;;25.66;28.57
56374;BME280;58212;47.034;7.376;2023-06-14T05:00:49;94758.56;;;25.43;28.98
56374;BME280;58212;47.034;7.376;2023-06-14T05:03:18;94756.09;;;26.02;27.69
56374;BME280;58212;47.034;7.376;2023-06-14T05:05:46;94760.41;;;26.31;27.51
56374;BME280;58212;47.034;7.376;2023-06-14T05:08:13;94754.38;;;26.97;26.81
56374;BME280;58212;47.034;7.376;2023-06-14T05:10:40;94755.78;;;27.22;26.45
56374;BME280;58212;47.034;7.376;2023-06-14T05:13:07;94751.97;;;27.58;26.31
56374;BME280;58212;47.034;7.376;2023-06-14T05:15:37;94753.38;;;28.06;25.38
56374;BME280;58212;47.034;7.376;2023-06-14T05:18:06;94764.88;;;27.80;25.91
56374;BME280;58212;47.034;7.376;2023-06-14T05:20:38;94760.91;;;28.32;25.24
56374;BME280;58212;47.034;7.376;2023-06-14T05:23:08;94752.28;;;29.89;22.01
56374;BME280;58212;47.034;7.376;2023-06-14T05:25:42;94743.50;;;29.50;23.22
56374;BME280;58212;47.034;7.376;2023-06-14T05:28:11;94761.66;;;29.39;23.69
56374;BME280;58212;47.034;7.376;2023-06-14T05:30:43;94762.78;;;30.20;22.77
56374;BME280;58212;47.034;7.376;2023-06-14T05:33:12;94774.22;;;29.73;23.77
56374;BME280;58212;47.034;7.376;2023-06-14T05:35:40;94767.75;;;29.55;22.98
56374;BME280;58212;47.034;7.376;2023-06-14T05:38:07;94764.84;;;29.71;21.26
56374;BME280;58212;47.034;7.376;2023-06-14T05:40:34;94764.09;;;31.00;19.70
56374;BME280;58212;47.034;7.376;2023-06-14T05:43:00;94768.84;;;31.07;18.96
56374;BME280;58212;47.034;7.376;2023-06-14T05:45:28;94765.81;;;31.66;18.87
56374;BME280;58212;47.034;7.376;2023-06-14T05:47:56;94776.69;;;30.08;20.23
56374;BME280;58212;47.034;7.376;2023-06-14T05:50:23;94775.34;;;29.69;21.47
56374;BME280;58212;47.034;7.376;2023-06-14T05:52:51;94783.59;;;29.23;22.27
56374;BME280;58212;47.034;7.376;2023-06-14T05:55:18;94781.38;;;28.26;22.89
56374;BME280;58212;47.034;7.376;2023-06-14T05:57:45;94799.94;;;24.38;26.77
56374;BME280;58212;47.034;7.376;2023-06-14T06:00:14;94809.00;;;22.11;30.50
56374;BME280;58212;47.034;7.376;2023-06-14T06:02:43;94815.09;;;21.04;33.20
56374;BME280;58212;47.034;7.376;2023-06-14T06:05:10;94806.69;;;20.66;34.09
56374;BME280;58212;47.034;7.376;2023-06-14T06:07:37;94818.09;;;19.60;36.08
56374;BME280;58212;47.034;7.376;2023-06-14T06:10:09;94814.31;;;20.64;35.37
56374;BME280;58212;47.034;7.376;2023-06-14T06:12:36;94822.88;;;19.63;36.60
56374;BME280;58212;47.034;7.376;2023-06-14T06:15:05;94825.81;;;19.26;34.86
56374;BME280;58212;47.034;7.376;2023-06-14T06:17:34;94823.69;;;19.99;35.45
56374;BME280;58212;47.034;7.376;2023-06-14T06:20:01;94821.03;;;22.22;32.13
56374;BME280;58212;47.034;7.376;2023-06-14T06:22:29;94823.78;;;20.61;32.86
56374;BME280;58212;47.034;7.376;2023-06-14T06:24:55;94821.25;;;19.76;35.39
56374;BME280;58212;47.034;7.376;2023-06-14T06:27:23;94824.69;;;19.90;35.37
56374;BME280;58212;47.034;7.376;2023-06-14T06:29:51;94829.25;;;19.40;36.54
56374;BME280;58212;47.034;7.376;2023-06-14T06:32:18;94825.81;;;20.33;35.58
56374;BME280;58212;47.034;7.376;2023-06-14T06:34:46;94834.50;;;20.30;34.51
56374;BME280;58212;47.034;7.376;2023-06-14T06:37:15;94826.47;;;21.40;33.66
56374;BME280;58212;47.034;7.376;2023-06-14T06:39:41;94830.53;;;22.03;31.76
56374;BME280;58212;47.034;7.376;2023-06-14T06:42:08;94828.22;;;21.27;31.60
56374;BME280;58212;47.034;7.376;2023-06-14T06:44:37;94829.91;;;22.14;31.09
56374;BME280;58212;47.034;7.376;2023-06-14T06:47:06;94837.31;;;20.78;32.45
56374;BME280;58212;47.034;7.376;2023-06-14T06:49:32;94847.84;;;21.36;32.27
56374;BME280;58212;47.034;7.376;2023-06-14T06:52:00;94840.38;;;20.32;33.59
56374;BME280;58212;47.034;7.376;2023-06-14T06:54:27;94846.84;;;19.73;33.73
56374;BME280;58212;47.034;7.376;2023-06-14T06:56:54;94851.84;;;20.77;33.18
56374;BME280;58212;47.034;7.376;2023-06-14T06:59:23;94859.19;;;20.32;32.52
56374;BME280;58212;47.034;7.376;2023-06-14T07:01:51;94844.44;;;21.14;32.26
56374;BME280;58212;47.034;7.376;2023-06-14T07:04:18;94852.22;;;21.80;31.76
56374;BME280;58212;47.034;7.376;2023-06-14T07:06:46;94853.28;;;21.62;31.10
56374;BME280;58212;47.034;7.376;2023-06-14T07:09:13;94856.38;;;21.30;31.68
56374;BME280;58212;47.034;7.376;2023-06-14T07:11:44;94862.53;;;20.91;31.87
56374;BME280;58212;47.034;7.376;2023-06-14T07:14:11;94856.72;;;21.37;30.96
56374;BME280;58212;47.034;7.376;2023-06-14T07:16:38;94860.63;;;21.22;31.42
56374;BME280;58212;47.034;7.376;2023-06-14T07:19:07;94853.47;;;21.74;30.43
56374;BME280;58212;47.034;7.376;2023-06-14T07:21:35;94859.97;;;20.86;32.75
56374;BME280;58212;47.034;7.376;2023-06-14T07:24:04;94862.81;;;21.77;30.57
56374;BME280;58212;47.034;7.376;2023-06-14T07:26:32;94851.59;;;21.18;31.95
56374;BME280;58212;47.034;7.376;2023-06-14T07:28:59;94858.94;;;21.43;32.36
56374;BME280;58212;47.034;7.376;2023-06-14T07:31:26;94862.84;;;21.20;31.97
56374;BME280;58212;47.034;7.376;2023-06-14T07:33:53;94865.31;;;20.55;32.81
56374;BME280;58212;47.034;7.376;2023-06-14T07:36:22;94858.91;;;21.91;31.45
56374;BME280;58212;47.034;7.376;2023-06-14T07:38:50;94860.75;;;21.65;31.72
56374;BME280;58212;47.034;7.376;2023-06-14T07:41:17;94869.75;;;21.52;32.50
56374;BME280;58212;47.034;7.376;2023-06-14T07:43:44;94861.59;;;20.95;32.72
56374;BME280;58212;47.034;7.376;2023-06-14T07:46:11;94870.06;;;21.51;31.64
56374;BME280;58212;47.034;7.376;2023-06-14T07:48:38;94866.50;;;20.93;32.22
56374;BME280;58212;47.034;7.376;2023-06-14T07:51:05;94855.72;;;21.16;31.51
56374;BME280;58212;47.034;7.376;2023-06-14T07:53:37;94859.63;;;21.49;31.78
56374;BME280;58212;47.034;7.376;2023-06-14T07:56:03;94852.91;;;22.03;31.38
56374;BME280;58212;47.034;7.376;2023-06-14T07:58:30;94860.91;;;20.51;31.83
56374;BME280;58212;47.034;7.376;2023-06-14T08:00:57;94861.84;;;21.56;30.99
56374;BME280;58212;47.034;7.376;2023-06-14T08:03:24;94864.06;;;21.62;30.73
56374;BME280;58212;47.034;7.376;2023-06-14T08:05:55;94861.78;;;22.12;30.91
56374;BME280;58212;47.034;7.376;2023-06-14T08:08:48;94857.78;;;22.35;29.32
56374;BME280;58212;47.034;7.376;2023-06-14T08:11:15;94856.72;;;21.37;31.03
56374;BME280;58212;47.034;7.376;2023-06-14T08:13:42;94855.19;;;21.62;30.72
56374;BME280;58212;47.034;7.376;2023-06-14T08:16:09;94858.75;;;21.23;31.42
56374;BME280;58212;47.034;7.376;2023-06-14T08:18:36;94858.69;;;21.79;31.45
56374;BME280;58212;47.034;7.376;2023-06-14T08:21:03;94863.00;;;21.80;30.62
56374;BME280;58212;47.034;7.376;2023-06-14T08:23:29;94860.16;;;21.29;30.99
56374;BME280;58212;47.034;7.376;2023-06-14T08:25:57;94873.31;;;21.00;30.17
56374;BME280;58212;47.034;7.376;2023-06-14T08:28:26;94858.22;;;21.69;30.94
56374;BME280;58212;47.034;7.376;2023-06-14T08:30:54;94863.88;;;21.50;31.28
56374;BME280;58212;47.034;7.376;2023-06-14T08:33:21;94863.78;;;21.16;32.21
56374;BME280;58212;47.034;7.376;2023-06-14T08:35:49;94861.44;;;22.48;30.51
56374;BME280;58212;47.034;7.376;2023-06-14T08:38:16;94859.69;;;22.78;29.20
56374;BME280;58212;47.034;7.376;2023-06-14T08:40:45;94865.06;;;21.75;30.66
56374;BME280;58212;47.034;7.376;2023-06-14T08:43:19;94868.50;;;21.50;31.19
56374;BME280;58212;47.034;7.376;2023-06-14T08:45:46;94862.38;;;22.61;28.48
56374;BME280;58212;47.034;7.376;2023-06-14T08:48:18;94868.97;;;22.98;28.16
56374;BME280;58212;47.034;7.376;2023-06-14T08:50:48;94866.84;;;22.05;28.80
56374;BME280;58212;47.034;7.376;2023-06-14T08:53:15;94860.50;;;22.18;27.64
56374;BME280;58212;47.034;7.376;2023-06-14T08:55:46;94862.41;;;22.18;29.15
56374;BME280;58212;47.034;7.376;2023-06-14T08:58:15;94862.53;;;22.47;28.03
56374;BME280;58212;47.034;7.376;2023-06-14T09:00:45;94859.25;;;22.42;28.71
56374;BME280;58212;47.034;7.376;2023-06-14T09:03:12;94868.03;;;21.65;29.10
56374;BME280;58212;47.034;7.376;2023-06-14T09:05:40;94864.94;;;22.14;29.42
56374;BME280;58212;47.034;7.376;2023-06-14T09:08:07;94870.97;;;22.28;28.29
56374;BME280;58212;47.034;7.376;2023-06-14T09:10:35;94859.53;;;22.49;28.79
56374;BME280;58212;47.034;7.376;2023-06-14T09:13:03;94854.28;;;23.16;27.39
56374;BME280;58212;47.034;7.376;2023-06-14T09:15:30;94855.91;;;23.08;27.91
56374;BME280;58212;47.034;7.376;2023-06-14T09:18:00;94854.25;;;22.86;27.70
56374;BME280;58212;47.034;7.376;2023-06-14T09:20:29;94852.22;;;23.21;27.92
56374;BME280;58212;47.034;7.376;2023-06-14T09:22:56;94854.84;;;23.47;28.65
56374;BME280;58212;47.034;7.376;2023-06-14T09:25:23;94851.84;;;23.69;28.13
56374;BME280;58212;47.034;7.376;2023-06-14T09:27:51;94851.50;;;23.42;28.20
56374;BME280;58212;47.034;7.376;2023-06-14T09:30:20;94850.94;;;23.57;28.12
56374;BME280;58212;47.034;7.376;2023-06-14T09:32:50;94853.31;;;22.65;28.56
56374;BME280;58212;47.034;7.376;2023-06-14T09:35:18;94853.56;;;23.07;28.17
56374;BME280;58212;47.034;7.376;2023-06-14T09:38:10;94858.03;;;23.32;28.82
56374;BME280;58212;47.034;7.376;2023-06-14T09:40:37;94848.09;;;24.03;27.36
56374;BME280;58212;47.034;7.376;2023-06-14T09:43:06;94858.06;;;23.91;26.82
56374;BME280;58212;47.034;7.376;2023-06-14T09:45:35;94855.94;;;23.37;26.95
56374;BME280;58212;47.034;7.376;2023-06-14T09:48:02;94857.03;;;23.07;28.25
56374;BME280;58212;47.034;7.376;2023-06-14T09:50:31;94862.09;;;23.09;27.78
56374;BME280;58212;47.034;7.376;2023-06-14T09:53:02;94862.72;;;23.14;27.76
56374;BME280;58212;47.034;7.376;2023-06-14T09:55:31;94863.66;;;23.56;27.71
56374;BME280;58212;47.034;7.376;2023-06-14T09:58:00;94862.81;;;23.64;28.15
56374;BME280;58212;47.034;7.376;2023-06-14T10:00:29;94859.41;;;23.09;28.49
56374;BME280;58212;47.034;7.376;2023-06-14T10:03:03;94858.84;;;24.12;26.65
56374;BME280;58212;47.034;7.376;2023-06-14T10:05:35;94861.81;;;23.77;27.06
56374;BME280;58212;47.034;7.376;2023-06-14T10:08:05;94865.50;;;23.44;26.52
56374;BME280;58212;47.034;7.376;2023-06-14T10:10:34;94866.50;;;24.10;26.53
56374;BME280;58212;47.034;7.376;2023-06-14T10:13:01;94860.34;;;23.80;26.91
56374;BME280;58212;47.034;7.376;2023-06-14T10:15:33;94862.13;;;23.97;27.18
56374;BME280;58212;47.034;7.376;2023-06-14T10:18:08;94854.13;;;24.29;26.24
56374;BME280;58212;47.034;7.376;2023-06-14T10:20:44;94861.75;;;24.48;25.75
56374;BME280;58212;47.034;7.376;2023-06-14T10:23:14;94858.19;;;23.94;25.83
56374;BME280;58212;47.034;7.376;2023-06-14T10:25:42;94837.88;;;24.29;25.67
56374;BME280;58212;47.034;7.376;2023-06-14T10:28:17;94851.69;;;24.16;25.85
56374;BME280;58212;47.034;7.376;2023-06-14T10:31:05;94853.19;;;24.05;25.21
56374;BME280;58212;47.034;7.376;2023-06-14T10:33:32;94855.84;;;24.13;24.59
56374;BME280;58212;47.034;7.376;2023-06-14T10:36:25;94851.00;;;23.77;24.96
56374;BME280;58212;47.034;7.376;2023-06-14T10:39:00;94842.94;;;23.69;24.88
56374;BME280;58212;47.034;7.376;2023-06-14T10:41:28;94846.94;;;24.33;25.08
56374;BME280;58212;47.034;7.376;2023-06-14T10:46:52;94846.66;;;24.26;25.52
56374;BME280;58212;47.034;7.376;2023-06-14T10:49:20;94842.94;;;24.52;25.04
56374;BME280;58212;47.034;7.376;2023-06-14T10:52:08;94827.50;;;24.11;24.56
56374;BME280;58212;47.034;7.376;2023-06-14T10:54:37;94831.97;;;24.36;25.73
56374;BME280;58212;47.034;7.376;2023-06-14T10:57:06;94834.91;;;24.43;25.48
56374;BME280;58212;47.034;7.376;2023-06-14T10:59:34;94830.56;;;24.96;25.48
56374;BME280;58212;47.034;7.376;2023-06-14T11:04:59;94830.09;;;24.07;25.59
56374;BME280;58212;47.034;7.376;2023-06-14T11:07:43;94828.44;;;25.13;24.95
56374;BME280;58212;47.034;7.376;2023-06-14T11:10:25;94827.28;;;24.90;24.81
56374;BME280;58212;47.034;7.376;2023-06-14T11:12:54;94827.56;;;25.34;24.44
56374;BME280;58212;47.034;7.376;2023-06-14T11:15:27;94824.97;;;24.68;25.85
56374;BME280;58212;47.034;7.376;2023-06-14T11:17:55;94834.00;;;25.17;25.05
56374;BME280;58212;47.034;7.376;2023-06-14T11:20:25;94829.91;;;25.11;25.58
56374;BME280;58212;47.034;7.376;2023-06-14T11:22:53;94834.16;;;24.55;23.88
56374;BME280;58212;47.034;7.376;2023-06-14T11:25:20;94824.97;;;24.14;24.78
56374;BME280;58212;47.034;7.376;2023-06-14T11:27:49;94835.00;;;25.49;24.79
56374;BME280;58212;47.034;7.376;2023-06-14T11:30:16;94832.72;;;25.14;25.17
56374;BME280;58212;47.034;7.376;2023-06-14T11:32:46;94833.63;;;24.94;23.52
56374;BME280;58212;47.034;7.376;2023-06-14T11:35:12;94829.47;;;25.82;22.90
56374;BME280;58212;47.034;7.376;2023-06-14T11:37:39;94819.34;;;25.42;24.21
56374;BME280;58212;47.034;7.376;2023-06-14T11:40:09;94820.13;;;25.79;24.37
56374;BME280;58212;47.034;7.376;2023-06-14T11:42:37;94825.44;;;25.63;24.11
56374;BME280;58212;47.034;7.376;2023-06-14T11:45:08;94815.28;;;24.79;23.86
56374;BME280;58212;47.034;7.376;2023-06-14T11:47:36;94820.03;;;24.82;23.63
56374;BME280;58212;47.034;7.376;2023-06-14T11:50:04;94821.56;;;25.76;23.62
56374;BME280;58212;47.034;7.376;2023-06-14T11:52:31;94820.78;;;25.15;22.68
56374;BME280;58212;47.034;7.376;2023-06-14T11:54:58;94831.13;;;24.56;23.58
56374;BME280;58212;47.034;7.376;2023-06-14T11:57:28;94825.50;;;25.43;22.25
56374;BME280;58212;47.034;7.376;2023-06-14T11:59:55;94821.44;;;25.24;21.39
56374;BME280;58212;47.034;7.376;2023-06-14T12:02:22;94817.97;;;25.48;22.73
56374;BME280;58212;47.034;7.376;2023-06-14T12:04:50;94823.28;;;25.69;21.82
56374;BME280;58212;47.034;7.376;2023-06-14T12:07:21;94810.88;;;26.48;22.04
56374;BME280;58212;47.034;7.376;2023-06-14T12:10:04;94814.81;;;25.58;22.73
56374;BME280;58212;47.034;7.376;2023-06-14T12:12:37;94819.53;;;25.25;23.25
56374;BME280;58212;47.034;7.376;2023-06-14T12:15:06;94820.44;;;25.65;21.96
56374;BME280;58212;47.034;7.376;2023-06-14T12:17:34;94808.88;;;26.05;22.14
56374;BME280;58212;47.034;7.376;2023-06-14T12:20:05;94810.06;;;25.67;23.21
56374;BME280;58212;47.034;7.376;2023-06-14T12:22:36;94807.81;;;25.69;21.73
56374;BME280;58212;47.034;7.376;2023-06-14T12:25:03;94814.59;;;25.75;22.42
56374;BME280;58212;47.034;7.376;2023-06-14T12:27:31;94815.81;;;26.30;22.04
56374;BME280;58212;47.034;7.376;2023-06-14T12:30:01;94819.94;;;26.00;21.53
56374;BME280;58212;47.034;7.376;2023-06-14T12:32:28;94802.94;;;25.75;22.21
56374;BME280;58212;47.034;7.376;2023-06-14T12:34:55;94816.38;;;25.23;20.86
56374;BME280;58212;47.034;7.376;2023-06-14T12:37:22;94811.53;;;25.41;20.76
56374;BME280;58212;47.034;7.376;2023-06-14T12:39:49;94799.56;;;26.06;20.33
56374;BME280;58212;47.034;7.376;2023-06-14T12:42:17;94798.97;;;26.12;21.56
56374;BME280;58212;47.034;7.376;2023-06-14T12:44:43;94802.38;;;25.33;22.71
56374;BME280;58212;47.034;7.376;2023-06-14T12:47:12;94796.41;;;25.27;22.02
56374;BME280;58212;47.034;7.376;2023-06-14T12:49:39;94796.59;;;25.83;23.08
56374;BME280;58212;47.034;7.376;2023-06-14T12:52:08;94800.34;;;25.18;21.18
56374;BME280;58212;47.034;7.376;2023-06-14T12:55:01;94797.41;;;25.47;21.95
56374;BME280;58212;47.034;7.376;2023-06-14T12:57:29;94797.66;;;25.66;21.03
56374;BME280;58212;47.034;7.376;2023-06-14T12:59:56;94799.56;;;26.18;21.76
56374;BME280;58212;47.034;7.376;2023-06-14T13:02:25;94809.84;;;25.24;22.69
56374;BME280;58212;47.034;7.376;2023-06-14T13:05:17;94796.97;;;25.45;23.40
56374;BME280;58212;47.034;7.376;2023-06-14T13:07:48;94806.31;;;25.72;23.39
56374;BME280;58212;47.034;7.376;2023-06-14T13:10:15;94797.97;;;26.17;22.33
56374;BME280;58212;47.034;7.376;2023-06-14T13:12:43;94812.47;;;25.57;21.16
56374;BME280;58212;47.034;7.376;2023-06-14T13:15:10;94805.56;;;25.71;21.43
56374;BME280;58212;47.034;7.376;2023-06-14T13:17:38;94807.16;;;25.60;20.77